createdAt,value
2023-03-29T00:01:36.126Z,99.90
2023-03-29T00:03:49.192Z,99.90
2023-03-29T00:06:16.738Z,99.90
2023-03-29T00:08:44.272Z,99.90
2023-03-29T00:11:11.796Z,99.90
2023-03-29T00:13:39.430Z,99.90
2023-03-29T00:16:06.991Z,99.90
2023-03-29T00:18:34.510Z,99.90
2023-03-29T00:21:02.576Z,99.90
2023-03-29T00:23:29.914Z,99.90
2023-03-29T00:25:57.462Z,99.90
2023-03-29T00:28:25.743Z,99.90
2023-03-29T00:30:53.337Z,99.90
2023-03-29T00:33:20.813Z,99.90
2023-03-29T00:35:48.544Z,99.90
2023-03-29T00:38:15.997Z,99.90
2023-03-29T00:40:43.514Z,99.90
2023-03-29T00:43:11.352Z,99.90
2023-03-29T00:45:38.888Z,99.90
2023-03-29T00:48:18.011Z,99.90
2023-03-29T00:50:51.148Z,99.90
2023-03-29T00:53:24.393Z,99.90
2023-03-29T00:55:54.408Z,99.90
2023-03-29T00:58:21.936Z,99.90
2023-03-29T01:00:49.777Z,99.90
2023-03-29T01:03:17.392Z,99.90
2023-03-29T01:05:44.869Z,99.90
2023-03-29T01:08:12.913Z,99.90
2023-03-29T01:10:43.315Z,99.90
2023-03-29T01:13:13.793Z,99.90
2023-03-29T01:15:41.395Z,99.90
2023-03-29T01:18:09.022Z,99.90
2023-03-29T01:21:09.418Z,99.90
2023-03-29T01:23:36.950Z,99.90
2023-03-29T01:26:22.390Z,99.90
2023-03-29T01:28:52.859Z,99.90
2023-03-29T01:31:20.428Z,99.90
2023-03-29T01:33:47.969Z,99.90
2023-03-29T01:36:33.797Z,99.90
2023-03-29T01:39:01.342Z,99.90
2023-03-29T01:41:28.916Z,99.90
2023-03-29T01:44:11.081Z,99.90
2023-03-29T01:46:47.292Z,99.90
2023-03-29T01:49:20.577Z,99.90
2023-03-29T01:51:53.765Z,99.90
2023-03-29T01:54:21.301Z,99.90
2023-03-29T01:56:48.952Z,99.90
2023-03-29T01:59:16.457Z,99.90
2023-03-29T02:01:49.484Z,99.90
2023-03-29T02:04:19.381Z,99.90
2023-03-29T02:06:46.914Z,99.90
2023-03-29T02:09:14.465Z,99.90
2023-03-29T02:11:42.076Z,99.90
2023-03-29T02:14:09.607Z,99.90
2023-03-29T02:16:39.790Z,99.90
2023-03-29T02:19:08.141Z,99.90
2023-03-29T02:21:53.455Z,99.90
2023-03-29T02:24:21.001Z,99.90
2023-03-29T02:26:48.534Z,99.90
2023-03-29T02:29:16.065Z,99.90
2023-03-29T02:31:44.454Z,99.90
2023-03-29T02:34:17.839Z,99.90
2023-03-29T02:36:48.039Z,99.90
2023-03-29T02:39:15.887Z,99.90
2023-03-29T02:41:43.425Z,99.90
2023-03-29T02:44:13.699Z,99.90
2023-03-29T02:46:41.306Z,99.90
2023-03-29T02:49:08.808Z,99.90
2023-03-29T02:51:36.361Z,99.90
2023-03-29T02:54:03.960Z,99.90
2023-03-29T02:56:31.513Z,99.90
2023-03-29T02:58:59.026Z,99.90
2023-03-29T03:01:26.683Z,99.90
2023-03-29T03:03:54.260Z,99.90
2023-03-29T03:06:21.650Z,99.90
2023-03-29T03:08:49.236Z,99.90
2023-03-29T03:11:16.782Z,99.90
2023-03-29T03:13:44.304Z,99.90
2023-03-29T03:16:11.970Z,99.90
2023-03-29T03:18:39.455Z,99.90
2023-03-29T03:21:06.984Z,99.90
2023-03-29T03:23:34.547Z,99.90
2023-03-29T03:26:02.093Z,99.90
2023-03-29T03:28:29.618Z,99.90
2023-03-29T03:30:57.211Z,99.90
2023-03-29T03:33:24.725Z,99.90
2023-03-29T03:35:52.311Z,99.90
2023-03-29T03:38:19.864Z,99.90
2023-03-29T03:40:47.399Z,99.90
2023-03-29T03:43:14.936Z,99.90
2023-03-29T03:45:42.523Z,99.90
2023-03-29T03:48:10.068Z,99.90
2023-03-29T03:50:37.607Z,99.90
2023-03-29T03:53:05.155Z,99.90
2023-03-29T03:55:32.684Z,99.90
2023-03-29T03:58:00.231Z,99.90
2023-03-29T04:00:27.791Z,99.90
2023-03-29T04:02:55.454Z,99.90
2023-03-29T04:05:22.872Z,99.90
2023-03-29T04:07:50.447Z,99.90
2023-03-29T04:10:17.970Z,99.90
2023-03-29T04:12:45.523Z,99.90
2023-03-29T04:15:13.082Z,99.90
2023-03-29T04:17:40.707Z,99.90
2023-03-29T04:20:08.138Z,99.90
2023-03-29T04:22:35.732Z,99.90
2023-03-29T04:25:03.286Z,99.90
2023-03-29T04:27:30.796Z,99.90
2023-03-29T04:29:58.371Z,99.90
2023-03-29T04:32:25.949Z,99.90
2023-03-29T04:34:53.443Z,99.90
2023-03-29T04:37:22.450Z,99.90
2023-03-29T04:39:49.967Z,99.90
2023-03-29T04:42:17.494Z,99.90
2023-03-29T04:44:45.139Z,99.90
2023-03-29T04:47:12.638Z,99.90
2023-03-29T04:49:40.177Z,99.90
2023-03-29T04:52:07.738Z,99.90
2023-03-29T04:54:35.265Z,99.90
2023-03-29T04:57:02.847Z,99.90
2023-03-29T04:59:30.379Z,99.90
2023-03-29T05:01:57.957Z,99.90
2023-03-29T05:04:25.474Z,99.90
2023-03-29T05:06:53.357Z,99.90
2023-03-29T05:09:20.905Z,99.90
2023-03-29T05:11:48.458Z,99.90
2023-03-29T05:14:16.090Z,99.90
2023-03-29T05:16:43.679Z,99.90
2023-03-29T05:19:11.158Z,99.90
2023-03-29T05:21:38.721Z,99.90
2023-03-29T05:24:06.255Z,99.90
2023-03-29T05:26:33.804Z,99.90
2023-03-29T05:29:01.394Z,99.90
2023-03-29T05:31:28.924Z,99.90
2023-03-29T05:33:56.419Z,99.90
2023-03-29T05:36:24.030Z,99.90
2023-03-29T05:38:51.524Z,99.90
2023-03-29T05:41:19.046Z,99.90
2023-03-29T05:43:46.728Z,99.90
2023-03-29T05:46:14.269Z,99.90
2023-03-29T05:48:41.789Z,99.90
2023-03-29T05:51:09.356Z,99.90
2023-03-29T05:53:36.888Z,99.90
2023-03-29T05:56:04.435Z,99.90
2023-03-29T05:58:32.023Z,99.90
2023-03-29T06:00:59.549Z,99.90
2023-03-29T06:03:27.283Z,99.90
2023-03-29T06:05:57.810Z,99.90
2023-03-29T06:08:25.368Z,99.90
2023-03-29T06:10:52.892Z,99.90
2023-03-29T06:13:20.458Z,99.90
2023-03-29T06:15:47.974Z,99.90
2023-03-29T06:18:15.509Z,99.90
2023-03-29T06:20:43.101Z,99.90
2023-03-29T06:23:10.618Z,99.90
2023-03-29T06:25:38.211Z,99.90
2023-03-29T06:28:05.794Z,99.90
2023-03-29T06:30:33.331Z,99.90
2023-03-29T06:33:00.938Z,99.90
2023-03-29T06:35:28.469Z,99.90
2023-03-29T06:37:55.967Z,99.90
2023-03-29T06:40:23.588Z,99.90
2023-03-29T06:42:51.118Z,99.90
2023-03-29T06:45:19.668Z,99.90
2023-03-29T06:47:46.345Z,99.90
2023-03-29T06:50:13.760Z,99.90
2023-03-29T06:52:41.279Z,99.90
2023-03-29T06:55:08.818Z,99.90
2023-03-29T06:57:37.347Z,99.90
2023-03-29T07:00:03.907Z,99.90
2023-03-29T07:02:31.468Z,99.90
2023-03-29T07:04:59.016Z,99.90
2023-03-29T07:07:26.590Z,99.90
2023-03-29T07:09:54.311Z,99.90
2023-03-29T07:12:24.452Z,99.90
2023-03-29T07:14:51.996Z,99.90
2023-03-29T07:17:19.502Z,99.90
2023-03-29T07:19:47.791Z,99.90
2023-03-29T07:22:15.316Z,99.90
2023-03-29T07:24:42.831Z,99.90
2023-03-29T07:27:10.403Z,99.90
2023-03-29T07:29:37.934Z,99.90
2023-03-29T07:32:05.454Z,99.90
2023-03-29T07:34:33.029Z,99.90
2023-03-29T07:37:00.563Z,99.90
2023-03-29T07:39:28.107Z,99.90
2023-03-29T07:41:55.670Z,99.90
2023-03-29T07:44:23.200Z,99.90
2023-03-29T07:46:50.729Z,99.90
2023-03-29T07:49:19.811Z,99.90
2023-03-29T07:51:45.895Z,99.90
2023-03-29T07:54:13.404Z,99.90
2023-03-29T07:56:41.728Z,99.90
2023-03-29T07:59:09.214Z,99.90
2023-03-29T08:01:36.740Z,99.90
2023-03-29T08:04:04.459Z,99.90
2023-03-29T08:06:31.840Z,99.90
2023-03-29T08:08:59.380Z,99.90
2023-03-29T08:11:26.964Z,99.90
2023-03-29T08:13:54.485Z,99.90
2023-03-29T08:16:22.076Z,99.90
2023-03-29T08:18:49.662Z,99.90
2023-03-29T08:21:17.151Z,99.90
2023-03-29T08:23:44.702Z,99.90
2023-03-29T08:26:12.278Z,99.90
2023-03-29T08:28:39.870Z,99.90
2023-03-29T08:31:07.466Z,99.90
2023-03-29T08:33:34.970Z,99.90
2023-03-29T08:36:02.517Z,99.90
2023-03-29T08:38:30.018Z,99.90
2023-03-29T08:40:57.833Z,99.90
2023-03-29T08:43:25.361Z,99.90
2023-03-29T08:46:01.683Z,99.90
2023-03-29T08:48:53.026Z,99.90
2023-03-29T08:51:20.636Z,99.90
2023-03-29T08:53:48.189Z,99.90
2023-03-29T08:56:21.392Z,99.90
2023-03-29T08:58:49.234Z,99.90
2023-03-29T09:01:16.869Z,99.90
2023-03-29T09:03:50.188Z,99.90
2023-03-29T09:06:17.709Z,99.90
2023-03-29T09:08:48.133Z,99.90
2023-03-29T09:11:24.779Z,99.90
2023-03-29T09:14:01.182Z,99.90
2023-03-29T09:16:43.657Z,99.90
2023-03-29T09:19:38.082Z,99.90
2023-03-29T09:22:08.138Z,99.90
2023-03-29T09:24:38.639Z,99.90
2023-03-29T09:27:15.119Z,99.90
2023-03-29T09:29:57.490Z,99.90
2023-03-29T09:32:27.765Z,99.90
2023-03-29T09:34:57.739Z,99.90
2023-03-29T09:37:33.799Z,99.90
2023-03-29T09:40:03.148Z,99.90
2023-03-29T09:42:28.863Z,99.90
2023-03-29T09:44:56.410Z,99.90
2023-03-29T09:47:27.110Z,99.90
2023-03-29T09:50:00.574Z,99.90
2023-03-29T09:52:28.121Z,99.90
2023-03-29T09:54:55.667Z,99.90
2023-03-29T09:57:23.331Z,99.90
2023-03-29T09:59:50.831Z,99.90
2023-03-29T10:02:18.383Z,99.90
2023-03-29T10:04:46.213Z,99.90
2023-03-29T10:07:16.431Z,99.90
2023-03-29T10:09:43.999Z,99.90
2023-03-29T10:12:11.533Z,99.90
2023-03-29T10:14:39.065Z,99.90
2023-03-29T10:17:06.601Z,99.90
2023-03-29T10:19:34.193Z,99.90
2023-03-29T10:22:01.737Z,99.90
2023-03-29T10:24:29.268Z,99.90
2023-03-29T10:27:02.689Z,99.80
2023-03-29T10:29:30.219Z,99.70
2023-03-29T10:31:57.803Z,99.70
2023-03-29T10:34:25.326Z,99.80
2023-03-29T10:36:52.860Z,99.60
2023-03-29T10:39:20.438Z,99.50
2023-03-29T10:41:47.961Z,99.20
2023-03-29T10:44:24.561Z,99.20
2023-03-29T10:46:52.086Z,99.00
2023-03-29T10:49:19.652Z,98.60
2023-03-29T10:51:47.251Z,98.50
2023-03-29T10:54:14.785Z,98.40
2023-03-29T10:56:42.404Z,97.90
2023-03-29T10:59:24.428Z,98.00
2023-03-29T11:02:16.212Z,98.40
2023-03-29T11:04:49.640Z,98.80
2023-03-29T11:07:28.761Z,98.70
2023-03-29T11:10:17.092Z,98.50
2023-03-29T11:12:50.509Z,98.60
2023-03-29T11:15:33.104Z,98.80
2023-03-29T11:18:03.348Z,98.50
2023-03-29T11:20:42.676Z,98.30
2023-03-29T11:23:22.386Z,98.30
2023-03-29T11:25:49.925Z,98.10
2023-03-29T11:28:22.916Z,97.80
2023-03-29T11:31:05.656Z,97.70
2023-03-29T11:33:38.171Z,97.70
2023-03-29T11:36:14.503Z,97.60
2023-03-29T11:38:51.056Z,97.80
2023-03-29T11:41:27.172Z,97.40
2023-03-29T11:44:00.659Z,97.20
2023-03-29T11:46:30.932Z,97.10
2023-03-29T11:49:07.343Z,96.80
2023-03-29T11:51:46.645Z,96.70
2023-03-29T11:54:26.057Z,96.40
2023-03-29T11:56:59.707Z,95.80
2023-03-29T11:59:29.914Z,95.40
2023-03-29T12:02:12.382Z,94.30
2023-03-29T12:04:39.846Z,94.20
2023-03-29T12:07:12.869Z,94.20
2023-03-29T12:09:46.296Z,94.40
2023-03-29T12:12:28.932Z,94.80
2023-03-29T12:14:59.522Z,95.30
2023-03-29T12:17:32.855Z,95.70
2023-03-29T12:20:00.368Z,96.10
2023-03-29T12:22:27.943Z,96.80
2023-03-29T12:24:55.624Z,97.30
2023-03-29T12:27:23.079Z,97.40
2023-03-29T12:29:53.362Z,97.60
2023-03-29T12:32:27.024Z,97.90
2023-03-29T12:35:12.866Z,98.70
2023-03-29T12:38:01.451Z,98.60
2023-03-29T12:40:29.024Z,98.90
2023-03-29T12:43:08.266Z,99.20
2023-03-29T12:45:39.318Z,99.80
2023-03-29T12:48:06.883Z,99.90
2023-03-29T12:50:37.387Z,99.90
2023-03-29T12:53:22.781Z,99.90
2023-03-29T12:56:05.277Z,99.90
2023-03-29T12:58:56.348Z,99.90
2023-03-29T13:01:29.833Z,99.90
2023-03-29T13:04:00.183Z,99.90
2023-03-29T13:06:33.631Z,99.90
2023-03-29T13:09:22.594Z,99.90
2023-03-29T13:11:52.869Z,99.90
2023-03-29T13:14:20.422Z,99.90
2023-03-29T13:16:48.026Z,99.90
2023-03-29T13:19:24.178Z,99.90
2023-03-29T13:21:51.719Z,99.90
2023-03-29T13:24:24.815Z,99.90
2023-03-29T13:27:19.325Z,99.90
2023-03-29T13:29:49.560Z,99.90
2023-03-29T13:32:47.392Z,99.90
2023-03-29T13:35:32.719Z,99.90
2023-03-29T13:38:23.990Z,99.90
2023-03-29T13:40:54.265Z,99.90
2023-03-29T13:43:21.825Z,99.90
2023-03-29T13:45:57.927Z,99.90
2023-03-29T13:48:28.470Z,99.90
2023-03-29T13:51:10.691Z,99.90
2023-03-29T13:53:47.109Z,99.90
2023-03-29T13:56:17.201Z,99.90
2023-03-29T13:58:50.491Z,99.90
2023-03-29T14:01:23.884Z,99.90
2023-03-29T14:03:51.386Z,99.90
2023-03-29T14:06:19.006Z,99.90
2023-03-29T14:08:46.571Z,99.90
2023-03-29T14:11:17.039Z,99.90
2023-03-29T14:13:44.651Z,99.90
2023-03-29T14:16:12.267Z,99.90
2023-03-29T14:18:39.752Z,99.90
2023-03-29T14:21:07.324Z,99.90
2023-03-29T14:23:34.861Z,99.90
2023-03-29T14:26:17.205Z,99.90
2023-03-29T14:28:47.415Z,99.90
2023-03-29T14:31:17.904Z,99.90
2023-03-29T14:33:45.488Z,99.90
2023-03-29T14:36:13.102Z,99.90
2023-03-29T14:38:40.577Z,99.90
2023-03-29T14:41:08.140Z,99.90
2023-03-29T14:43:35.674Z,99.90
2023-03-29T14:46:03.406Z,99.90
2023-03-29T14:48:30.784Z,99.90
2023-03-29T14:50:58.374Z,99.90
2023-03-29T14:53:25.866Z,99.90
2023-03-29T14:55:53.451Z,99.90
2023-03-29T14:58:23.921Z,99.90
2023-03-29T15:00:51.472Z,99.90
2023-03-29T15:03:19.230Z,99.90
2023-03-29T15:05:55.422Z,99.90
2023-03-29T15:08:37.766Z,99.90
2023-03-29T15:11:16.740Z,99.90
2023-03-29T15:13:44.308Z,99.90
2023-03-29T15:16:12.086Z,99.90
2023-03-29T15:18:39.451Z,99.90
2023-03-29T15:21:09.944Z,99.90
2023-03-29T15:23:58.566Z,99.90
2023-03-29T15:26:26.201Z,99.90
2023-03-29T15:28:56.384Z,99.90
2023-03-29T15:31:29.255Z,99.90
2023-03-29T15:34:02.780Z,99.90
2023-03-29T15:36:30.320Z,99.90
2023-03-29T15:38:57.844Z,99.90
2023-03-29T15:41:25.486Z,99.90
2023-03-29T15:43:52.963Z,99.90
2023-03-29T15:46:20.527Z,99.90
2023-03-29T15:48:48.830Z,99.90
2023-03-29T15:51:16.378Z,99.90
2023-03-29T15:53:43.945Z,99.90
2023-03-29T15:56:11.758Z,99.90
2023-03-29T15:58:39.309Z,99.90
2023-03-29T16:01:28.257Z,99.90
2023-03-29T16:03:55.761Z,99.90
2023-03-29T16:06:23.293Z,99.80
2023-03-29T16:08:50.888Z,99.30
2023-03-29T16:11:18.401Z,98.70
2023-03-29T16:13:46.010Z,98.50
2023-03-29T16:16:13.610Z,98.60
2023-03-29T16:18:41.096Z,98.70
2023-03-29T16:21:12.365Z,98.40
2023-03-29T16:23:38.918Z,98.10
2023-03-29T16:26:06.588Z,98.10
2023-03-29T16:28:33.964Z,97.80
2023-03-29T16:31:01.576Z,97.10
2023-03-29T16:33:29.100Z,96.80
2023-03-29T16:35:56.673Z,96.90
2023-03-29T16:38:24.466Z,96.90
2023-03-29T16:40:52.034Z,96.90
2023-03-29T16:43:19.561Z,96.70
2023-03-29T16:45:47.167Z,96.60
2023-03-29T16:48:14.675Z,96.60
2023-03-29T16:50:42.306Z,96.60
2023-03-29T16:53:09.789Z,96.60
2023-03-29T16:55:37.331Z,96.60
2023-03-29T16:58:04.863Z,96.40
2023-03-29T17:00:32.447Z,96.30
2023-03-29T17:03:02.892Z,96.10
2023-03-29T17:05:30.404Z,95.90
2023-03-29T17:07:58.035Z,95.70
2023-03-29T17:10:25.572Z,95.60
2023-03-29T17:12:53.124Z,95.50
2023-03-29T17:15:20.717Z,95.40
2023-03-29T17:17:48.269Z,95.20
2023-03-29T17:20:15.791Z,94.60
2023-03-29T17:22:43.373Z,94.40
2023-03-29T17:25:10.919Z,94.40
2023-03-29T17:27:38.474Z,94.50
2023-03-29T17:30:06.034Z,94.40
2023-03-29T17:32:33.565Z,94.60
2023-03-29T17:35:01.101Z,94.80
2023-03-29T17:37:28.671Z,94.80
2023-03-29T17:39:56.189Z,95.40
2023-03-29T17:42:23.737Z,95.50
2023-03-29T17:44:51.351Z,96.10
2023-03-29T17:47:18.879Z,96.70
2023-03-29T17:49:46.417Z,97.10
2023-03-29T17:52:14.019Z,97.60
2023-03-29T17:54:41.544Z,97.90
2023-03-29T17:57:09.137Z,98.20
2023-03-29T17:59:36.648Z,98.50
2023-03-29T18:02:04.252Z,98.60
2023-03-29T18:04:31.776Z,98.80
2023-03-29T18:06:59.357Z,99.00
2023-03-29T18:09:29.404Z,99.30
2023-03-29T18:11:54.457Z,99.60
2023-03-29T18:14:22.032Z,99.90
2023-03-29T18:16:49.580Z,99.60
2023-03-29T18:19:17.103Z,99.40
2023-03-29T18:21:44.946Z,99.40
2023-03-29T18:24:12.480Z,99.20
2023-03-29T18:26:40.010Z,99.30
2023-03-29T18:29:09.742Z,99.40
2023-03-29T18:31:35.215Z,99.60
2023-03-29T18:34:02.707Z,99.80
2023-03-29T18:36:30.449Z,99.90
2023-03-29T18:38:57.942Z,99.90
2023-03-29T18:41:25.487Z,99.90
2023-03-29T18:43:53.092Z,99.90
2023-03-29T18:46:20.677Z,99.70
2023-03-29T18:48:48.210Z,99.30
2023-03-29T18:51:15.820Z,99.30
2023-03-29T18:53:43.360Z,99.40
2023-03-29T18:56:10.941Z,99.50
2023-03-29T18:58:38.523Z,99.50
2023-03-29T19:01:06.102Z,99.60
2023-03-29T19:03:33.637Z,99.70
2023-03-29T19:06:01.332Z,99.80
2023-03-29T19:08:28.761Z,99.80
2023-03-29T19:11:01.806Z,99.90
2023-03-29T19:13:29.461Z,99.90
2023-03-29T19:15:57.062Z,99.90
2023-03-29T19:18:24.542Z,99.90
2023-03-29T19:20:52.116Z,99.90
2023-03-29T19:23:19.650Z,99.90
2023-03-29T19:25:53.198Z,99.90
2023-03-29T19:28:20.768Z,99.80
2023-03-29T19:30:48.367Z,99.40
2023-03-29T19:33:15.895Z,99.00
2023-03-29T19:35:43.731Z,99.00
2023-03-29T19:38:11.245Z,98.90
2023-03-29T19:40:38.809Z,98.50
2023-03-29T19:43:06.402Z,98.20
2023-03-29T19:45:33.958Z,97.80
2023-03-29T19:48:03.315Z,97.20
2023-03-29T19:50:29.081Z,97.00
2023-03-29T19:52:56.633Z,97.00
2023-03-29T19:55:24.171Z,97.10
2023-03-29T19:57:51.803Z,97.10
2023-03-29T20:00:19.404Z,97.20
2023-03-29T20:02:46.990Z,97.20
2023-03-29T20:05:14.753Z,97.50
2023-03-29T20:07:42.306Z,97.20
2023-03-29T20:10:09.856Z,97.20
2023-03-29T20:12:37.468Z,97.20
2023-03-29T20:15:05.007Z,97.30
2023-03-29T20:17:32.595Z,97.20
2023-03-29T20:20:00.177Z,97.20
2023-03-29T20:22:27.690Z,97.20
2023-03-29T20:24:55.219Z,97.10
2023-03-29T20:27:22.830Z,96.70
2023-03-29T20:29:50.357Z,96.40
2023-03-29T20:32:18.038Z,96.50
2023-03-29T20:34:45.504Z,96.20
2023-03-29T20:37:13.028Z,96.00
2023-03-29T20:39:40.548Z,96.10
2023-03-29T20:42:08.126Z,96.20
2023-03-29T20:44:35.665Z,96.20
2023-03-29T20:47:03.222Z,96.30
2023-03-29T20:49:30.772Z,96.40
2023-03-29T20:52:01.149Z,96.40
2023-03-29T20:54:28.684Z,96.50
2023-03-29T20:56:56.310Z,96.50
2023-03-29T20:59:23.852Z,96.50
2023-03-29T21:01:51.438Z,96.40
2023-03-29T21:04:19.089Z,96.40
2023-03-29T21:06:46.568Z,96.20
2023-03-29T21:09:14.111Z,95.90
2023-03-29T21:11:41.676Z,96.00
2023-03-29T21:14:09.230Z,96.10
2023-03-29T21:16:36.756Z,96.10
2023-03-29T21:19:04.360Z,96.20
2023-03-29T21:21:31.903Z,96.30
2023-03-29T21:23:59.437Z,96.30
2023-03-29T21:26:27.083Z,96.30
2023-03-29T21:28:54.555Z,96.50
2023-03-29T21:31:22.158Z,96.00
2023-03-29T21:33:49.704Z,96.10
2023-03-29T21:36:17.287Z,96.20
2023-03-29T21:38:44.777Z,96.60
2023-03-29T21:41:12.346Z,96.40
2023-03-29T21:43:39.893Z,96.30
2023-03-29T21:46:07.479Z,96.00
2023-03-29T21:48:35.059Z,96.00
2023-03-29T21:51:02.750Z,96.10
2023-03-29T21:53:30.143Z,96.20
2023-03-29T21:55:57.853Z,96.20
2023-03-29T21:58:25.317Z,96.20
2023-03-29T22:00:52.920Z,96.00
2023-03-29T22:03:20.485Z,96.10
2023-03-29T22:06:02.515Z,96.20
2023-03-29T22:08:30.048Z,96.20
2023-03-29T22:10:57.584Z,96.40
2023-03-29T22:13:25.129Z,96.50
2023-03-29T22:15:55.788Z,96.50
2023-03-29T22:18:23.273Z,96.30
2023-03-29T22:20:50.806Z,96.30
2023-03-29T22:23:18.343Z,96.30
2023-03-29T22:25:45.949Z,96.20
2023-03-29T22:28:13.480Z,96.00
2023-03-29T22:30:41.017Z,96.00
2023-03-29T22:33:08.620Z,96.10
2023-03-29T22:35:36.168Z,96.10
2023-03-29T22:38:03.646Z,96.10
2023-03-29T22:40:31.243Z,96.10
2023-03-29T22:42:58.784Z,96.10
2023-03-29T22:45:26.331Z,96.10
2023-03-29T22:47:53.994Z,96.20
2023-03-29T22:50:21.470Z,96.30
2023-03-29T22:52:49.011Z,96.40
2023-03-29T22:55:16.655Z,96.40
2023-03-29T22:57:44.199Z,96.50
2023-03-29T23:00:11.802Z,96.60
2023-03-29T23:02:39.426Z,96.70
2023-03-29T23:05:07.028Z,96.80
2023-03-29T23:07:34.553Z,96.80
2023-03-29T23:10:02.234Z,96.90
2023-03-29T23:12:29.782Z,97.00
2023-03-29T23:14:57.329Z,97.10
2023-03-29T23:17:24.956Z,96.80
2023-03-29T23:19:52.552Z,97.00
2023-03-29T23:22:20.046Z,97.10
2023-03-29T23:24:47.582Z,97.20
2023-03-29T23:27:15.155Z,97.00
2023-03-29T23:29:42.700Z,97.10
2023-03-29T23:32:10.262Z,97.20
2023-03-29T23:34:37.844Z,97.30
2023-03-29T23:37:05.384Z,97.40
2023-03-29T23:39:32.929Z,97.30
2023-03-29T23:42:00.484Z,97.10
2023-03-29T23:44:28.027Z,97.10
2023-03-29T23:46:55.638Z,97.10
2023-03-29T23:49:23.174Z,97.10
2023-03-29T23:51:50.725Z,97.10
2023-03-29T23:54:18.244Z,96.80
2023-03-29T23:56:45.864Z,96.80
2023-03-29T23:59:13.343Z,97.00
